Mr Thomas — WDD7163 — position and weather

sailwx.info

Track history (hours):
 
Tides and Currents Weather Stations Pressure Air Temp Water Temp Dewpoint Dewpoint Depression Visibility Wind Speed Wind Dir Waves Ship Positions

Mr Thomas

Owner: CENTRAL BOAT RENTALS, BERWICK, LA. More information available from US FCC via Universal Licensing System and Coast Guard Vessel Documentation Center.

Last reported at 2016-Apr-28 05:32 UTC. Time now 2016-Apr-30 16:54 UTC.
Position N 29°32' W 090°49'.

Length 21 m; draft 2.5 m.

Type: Tug. MMSI: 367182730.

Date/timePositionNaut miles runAvg speedWind from/ knotsBaromVisibWave heightAir tempDewpointWater temp
2016-Apr-28 05:32N 29°32' W 090°49'5 5.5
2016-Apr-28 04:33N 29°34' W 090°43'7 6.6
2016-Apr-28 03:33N 29°27' W 090°43'  
2016-Apr-25 02:26N 29°34' W 090°30'6 6.9
2016-Apr-25 01:33N 29°35' W 090°37'5 5.0
2016-Apr-25 00:33N 29°35' W 090°43'7 6.5
2016-Apr-24 23:33N 29°32' W 090°50'1 0.0
2016-Apr-23 15:22N 29°32' W 090°51'5 6.5
2016-Apr-23 14:33N 29°33' W 090°45'5 4.7
2016-Apr-23 13:33N 29°37' W 090°42'6 5.7
2016-Apr-23 12:33N 29°35' W 090°36'7 7.2
2016-Apr-23 11:33N 29°34' W 090°28'25 3.5
2016-Apr-23 04:17N 29°47' W 090°04'3 4.3
2016-Apr-23 03:33N 29°50' W 090°03'4 4.3
2016-Apr-23 02:33N 29°54' W 089°60'2 1.8
2016-Apr-23 01:31N 29°55' W 089°58'0 0.5
2016-Apr-23 00:33N 29°55' W 089°58'2 0.4
2016-Apr-22 18:24N 29°55' W 089°55'3 1.4
2016-Apr-22 16:20N 29°53' W 089°58'2 2.6
2016-Apr-22 15:33N 29°51' W 089°59'3 2.6
2016-Apr-22 14:23N 29°48' W 090°00'4 1.7
2016-Apr-22 12:13N 29°45' W 090°00'5 0.2
2016-Apr-21 03:19N 29°50' W 089°60'6 7.0
2016-Apr-21 02:23N 29°55' W 089°55'3 1.5
2016-Apr-21 00:32N 29°55' W 089°58'5 5.5
2016-Apr-20 23:33N 29°50' W 090°02'5 5.1
2016-Apr-20 22:34N 29°46' W 090°05'25 6.2
2016-Apr-20 18:25N 29°34' W 090°31'6 7.0
2016-Apr-20 17:33N 29°35' W 090°37'5 4.6
2016-Apr-20 16:33N 29°35' W 090°43'6 6.4
2016-Apr-20 15:33N 29°32' W 090°49'2 0.1
2016-Apr-19 22:28N 29°32' W 090°51'7 7.2
2016-Apr-19 21:33N 29°34' W 090°44'7 6.5
2016-Apr-19 20:33N 29°27' W 090°43'3 0.3
2016-Apr-19 09:13N 29°24' W 090°44'3 4.0
2016-Apr-19 08:33N 29°27' W 090°43'4 4.2
2016-Apr-19 07:33N 29°31' W 090°42'2 2.4
2016-Apr-19 06:32N 29°34' W 090°42'0 0.0
2016-Apr-19 05:32N 29°34' W 090°42'0 0.3
2016-Apr-19 04:33N 29°34' W 090°42'0 0.4
2016-Apr-19 03:33N 29°34' W 090°42'0 0.3
2016-Apr-19 02:28N 29°34' W 090°42'4 4.3
2016-Apr-19 01:33N 29°32' W 090°46'8 8.0
2016-Apr-19 00:30N 29°34' W 090°56'  
Track history (hours):
 
Tides and Currents Weather Stations Pressure Air Temp Water Temp Dewpoint Dewpoint Depression Visibility Wind Speed Wind Dir Waves Ship Positions

Mr Thomas

Owner: CENTRAL BOAT RENTALS, BERWICK, LA. More information available from US FCC via Universal Licensing System and Coast Guard Vessel Documentation Center.

Last reported at 2016-Apr-28 05:32 UTC. Time now 2016-Apr-30 16:54 UTC.
Position N 29°32' W 090°49'.

Length 21 m; draft 2.5 m.

Type: Tug. MMSI: 367182730.

Date/timePositionNaut miles runAvg speedWind from/ knotsBaromVisibWave heightAir tempDewpointWater temp
2016-Apr-28 05:32N 29°32' W 090°49'5 5.5
2016-Apr-28 04:33N 29°34' W 090°43'7 6.6
2016-Apr-28 03:33N 29°27' W 090°43'  
2016-Apr-25 02:26N 29°34' W 090°30'6 6.9
2016-Apr-25 01:33N 29°35' W 090°37'5 5.0
2016-Apr-25 00:33N 29°35' W 090°43'7 6.5
2016-Apr-24 23:33N 29°32' W 090°50'1 0.0
2016-Apr-23 15:22N 29°32' W 090°51'5 6.5
2016-Apr-23 14:33N 29°33' W 090°45'5 4.7
2016-Apr-23 13:33N 29°37' W 090°42'6 5.7
2016-Apr-23 12:33N 29°35' W 090°36'7 7.2
2016-Apr-23 11:33N 29°34' W 090°28'25 3.5
2016-Apr-23 04:17N 29°47' W 090°04'3 4.3
2016-Apr-23 03:33N 29°50' W 090°03'4 4.3
2016-Apr-23 02:33N 29°54' W 089°60'2 1.8
2016-Apr-23 01:31N 29°55' W 089°58'0 0.5
2016-Apr-23 00:33N 29°55' W 089°58'2 0.4
2016-Apr-22 18:24N 29°55' W 089°55'3 1.4
2016-Apr-22 16:20N 29°53' W 089°58'2 2.6
2016-Apr-22 15:33N 29°51' W 089°59'3 2.6
2016-Apr-22 14:23N 29°48' W 090°00'4 1.7
2016-Apr-22 12:13N 29°45' W 090°00'5 0.2
2016-Apr-21 03:19N 29°50' W 089°60'6 7.0
2016-Apr-21 02:23N 29°55' W 089°55'3 1.5
2016-Apr-21 00:32N 29°55' W 089°58'5 5.5
2016-Apr-20 23:33N 29°50' W 090°02'5 5.1
2016-Apr-20 22:34N 29°46' W 090°05'25 6.2
2016-Apr-20 18:25N 29°34' W 090°31'6 7.0
2016-Apr-20 17:33N 29°35' W 090°37'5 4.6
2016-Apr-20 16:33N 29°35' W 090°43'6 6.4
2016-Apr-20 15:33N 29°32' W 090°49'2 0.1
2016-Apr-19 22:28N 29°32' W 090°51'7 7.2
2016-Apr-19 21:33N 29°34' W 090°44'7 6.5
2016-Apr-19 20:33N 29°27' W 090°43'3 0.3
2016-Apr-19 09:13N 29°24' W 090°44'3 4.0
2016-Apr-19 08:33N 29°27' W 090°43'4 4.2
2016-Apr-19 07:33N 29°31' W 090°42'2 2.4
2016-Apr-19 06:32N 29°34' W 090°42'0 0.0
2016-Apr-19 05:32N 29°34' W 090°42'0 0.3
2016-Apr-19 04:33N 29°34' W 090°42'0 0.4
2016-Apr-19 03:33N 29°34' W 090°42'0 0.3
2016-Apr-19 02:28N 29°34' W 090°42'4 4.3
2016-Apr-19 01:33N 29°32' W 090°46'8 8.0
2016-Apr-19 00:30N 29°34' W 090°56'  

Dump ship's entire track history